Aviation Digital Data Service (ADDS)

Output produced by METARs form (0639 UTC 27 March 2017)
found at http://www.aviationweather.gov/adds/metars/
 
FIMR 270600Z 09015KT 9999 SCT018 29/23 Q1018
TAF FIMR 270520Z 2706/2800 07015G25KT 9999 SCT018
       
FIMP 270600Z 06013KT 9999 SCT017 BKN250 29/24 Q1017
TAF FIMP 270515Z 2706/2812 05008KT 9999 SCT017 
     BECMG 2718/2720 32003KT 
     PROB30 
     TEMPO 2721/2806 7000 -SHRA BKN015 BKN050 
     BECMG 2804/2806 04008KT